sensor_id;sensor_type;location;lat;lon;timestamp;P1;durP1;ratioP1;P2;durP2;ratioP2
77938;SDS011;67136;47.546;21.630;2023-07-13T00:01:35;17.25;;;11.23;;
77938;SDS011;67136;47.546;21.630;2023-07-13T00:04:38;17.50;;;11.88;;
77938;SDS011;67136;47.546;21.630;2023-07-13T00:07:40;16.48;;;11.75;;
77938;SDS011;67136;47.546;21.630;2023-07-13T00:10:43;18.48;;;11.82;;
77938;SDS011;67136;47.546;21.630;2023-07-13T00:13:48;15.87;;;12.17;;
77938;SDS011;67136;47.546;21.630;2023-07-13T00:16:51;16.65;;;12.45;;
77938;SDS011;67136;47.546;21.630;2023-07-13T00:19:54;22.45;;;12.32;;
77938;SDS011;67136;47.546;21.630;2023-07-13T00:22:58;18.40;;;12.55;;
77938;SDS011;67136;47.546;21.630;2023-07-13T00:26:01;18.23;;;11.98;;
77938;SDS011;67136;47.546;21.630;2023-07-13T00:29:05;17.93;;;12.50;;
77938;SDS011;67136;47.546;21.630;2023-07-13T00:32:10;14.90;;;11.18;;
77938;SDS011;67136;47.546;21.630;2023-07-13T00:35:14;19.55;;;12.20;;
77938;SDS011;67136;47.546;21.630;2023-07-13T00:38:17;14.45;;;11.15;;
77938;SDS011;67136;47.546;21.630;2023-07-13T00:41:21;18.10;;;12.32;;
77938;SDS011;67136;47.546;21.630;2023-07-13T00:44:23;17.87;;;11.27;;
77938;SDS011;67136;47.546;21.630;2023-07-13T00:47:26;19.02;;;11.93;;
77938;SDS011;67136;47.546;21.630;2023-07-13T00:50:29;15.80;;;11.23;;
77938;SDS011;67136;47.546;21.630;2023-07-13T00:53:31;17.67;;;11.43;;
77938;SDS011;67136;47.546;21.630;2023-07-13T00:56:36;14.90;;;11.65;;
77938;SDS011;67136;47.546;21.630;2023-07-13T00:59:40;18.33;;;11.97;;
77938;SDS011;67136;47.546;21.630;2023-07-13T01:02:47;14.73;;;10.80;;
77938;SDS011;67136;47.546;21.630;2023-07-13T01:05:51;15.57;;;11.93;;
77938;SDS011;67136;47.546;21.630;2023-07-13T01:08:56;18.23;;;11.45;;
77938;SDS011;67136;47.546;21.630;2023-07-13T01:12:01;16.12;;;11.65;;
77938;SDS011;67136;47.546;21.630;2023-07-13T01:15:05;14.57;;;11.20;;
77938;SDS011;67136;47.546;21.630;2023-07-13T01:18:09;16.58;;;11.23;;
77938;SDS011;67136;47.546;21.630;2023-07-13T01:21:20;13.32;;;11.05;;
77938;SDS011;67136;47.546;21.630;2023-07-13T01:24:23;15.85;;;11.20;;
77938;SDS011;67136;47.546;21.630;2023-07-13T01:27:26;16.83;;;10.98;;
77938;SDS011;67136;47.546;21.630;2023-07-13T01:30:28;15.33;;;11.37;;
77938;SDS011;67136;47.546;21.630;2023-07-13T01:33:31;17.60;;;11.98;;
77938;SDS011;67136;47.546;21.630;2023-07-13T01:36:34;15.25;;;11.52;;
77938;SDS011;67136;47.546;21.630;2023-07-13T01:39:37;18.55;;;11.50;;
77938;SDS011;67136;47.546;21.630;2023-07-13T01:42:40;15.32;;;11.77;;
77938;SDS011;67136;47.546;21.630;2023-07-13T01:45:43;15.93;;;11.20;;
77938;SDS011;67136;47.546;21.630;2023-07-13T01:48:47;16.52;;;11.25;;
77938;SDS011;67136;47.546;21.630;2023-07-13T01:51:50;15.23;;;11.43;;
77938;SDS011;67136;47.546;21.630;2023-07-13T01:54:53;14.40;;;10.80;;
77938;SDS011;67136;47.546;21.630;2023-07-13T01:57:56;16.37;;;11.12;;
77938;SDS011;67136;47.546;21.630;2023-07-13T02:00:59;15.43;;;11.20;;
77938;SDS011;67136;47.546;21.630;2023-07-13T02:04:02;15.90;;;11.82;;
77938;SDS011;67136;47.546;21.630;2023-07-13T02:07:08;18.67;;;11.25;;
77938;SDS011;67136;47.546;21.630;2023-07-13T02:10:11;17.27;;;11.85;;
77938;SDS011;67136;47.546;21.630;2023-07-13T02:13:14;16.52;;;11.60;;
77938;SDS011;67136;47.546;21.630;2023-07-13T02:16:17;14.60;;;11.00;;
77938;SDS011;67136;47.546;21.630;2023-07-13T02:19:20;15.88;;;11.43;;
77938;SDS011;67136;47.546;21.630;2023-07-13T02:22:23;18.17;;;11.60;;
77938;SDS011;67136;47.546;21.630;2023-07-13T02:25:26;14.77;;;10.90;;
77938;SDS011;67136;47.546;21.630;2023-07-13T02:28:29;14.85;;;10.85;;
77938;SDS011;67136;47.546;21.630;2023-07-13T02:31:31;15.13;;;10.30;;
77938;SDS011;67136;47.546;21.630;2023-07-13T02:34:34;14.52;;;10.90;;
77938;SDS011;67136;47.546;21.630;2023-07-13T02:37:38;15.13;;;10.50;;
77938;SDS011;67136;47.546;21.630;2023-07-13T02:40:41;15.20;;;10.60;;
77938;SDS011;67136;47.546;21.630;2023-07-13T02:43:44;16.37;;;10.38;;
77938;SDS011;67136;47.546;21.630;2023-07-13T02:46:46;14.60;;;10.60;;
77938;SDS011;67136;47.546;21.630;2023-07-13T02:49:49;13.20;;;10.35;;
77938;SDS011;67136;47.546;21.630;2023-07-13T02:52:52;16.27;;;10.23;;
77938;SDS011;67136;47.546;21.630;2023-07-13T02:55:54;15.00;;;10.50;;
77938;SDS011;67136;47.546;21.630;2023-07-13T02:58:57;14.45;;;10.02;;
77938;SDS011;67136;47.546;21.630;2023-07-13T03:02:01;13.13;;;10.23;;
77938;SDS011;67136;47.546;21.630;2023-07-13T03:05:05;13.35;;;10.20;;
77938;SDS011;67136;47.546;21.630;2023-07-13T03:08:08;13.25;;;10.10;;
77938;SDS011;67136;47.546;21.630;2023-07-13T03:11:13;15.70;;;9.48;;
77938;SDS011;67136;47.546;21.630;2023-07-13T03:14:18;13.40;;;9.85;;
77938;SDS011;67136;47.546;21.630;2023-07-13T03:17:21;13.93;;;10.93;;
77938;SDS011;67136;47.546;21.630;2023-07-13T03:20:24;14.70;;;11.57;;
77938;SDS011;67136;47.546;21.630;2023-07-13T03:23:27;13.55;;;11.02;;
77938;SDS011;67136;47.546;21.630;2023-07-13T03:26:29;16.75;;;10.73;;
77938;SDS011;67136;47.546;21.630;2023-07-13T03:29:32;16.85;;;11.30;;
77938;SDS011;67136;47.546;21.630;2023-07-13T03:32:35;16.73;;;10.63;;
77938;SDS011;67136;47.546;21.630;2023-07-13T03:35:40;17.33;;;11.05;;
77938;SDS011;67136;47.546;21.630;2023-07-13T03:38:43;13.82;;;10.23;;
77938;SDS011;67136;47.546;21.630;2023-07-13T03:41:46;19.45;;;11.30;;
77938;SDS011;67136;47.546;21.630;2023-07-13T03:44:49;15.13;;;10.48;;
77938;SDS011;67136;47.546;21.630;2023-07-13T03:47:57;11.77;;;9.83;;
77938;SDS011;67136;47.546;21.630;2023-07-13T03:50:59;16.52;;;10.35;;
77938;SDS011;67136;47.546;21.630;2023-07-13T03:54:03;17.45;;;10.38;;
77938;SDS011;67136;47.546;21.630;2023-07-13T03:57:06;13.88;;;9.82;;
77938;SDS011;67136;47.546;21.630;2023-07-13T04:00:09;14.75;;;10.45;;
77938;SDS011;67136;47.546;21.630;2023-07-13T04:03:16;13.47;;;10.17;;
77938;SDS011;67136;47.546;21.630;2023-07-13T04:06:21;15.80;;;10.15;;
77938;SDS011;67136;47.546;21.630;2023-07-13T04:09:26;14.30;;;9.88;;
77938;SDS011;67136;47.546;21.630;2023-07-13T04:12:29;13.18;;;9.23;;
77938;SDS011;67136;47.546;21.630;2023-07-13T04:15:32;11.20;;;9.68;;
77938;SDS011;67136;47.546;21.630;2023-07-13T04:18:35;13.37;;;9.80;;
77938;SDS011;67136;47.546;21.630;2023-07-13T04:21:37;16.27;;;9.93;;
77938;SDS011;67136;47.546;21.630;2023-07-13T04:24:40;13.10;;;9.55;;
77938;SDS011;67136;47.546;21.630;2023-07-13T04:27:42;14.25;;;9.35;;
77938;SDS011;67136;47.546;21.630;2023-07-13T04:30:45;16.37;;;9.60;;
77938;SDS011;67136;47.546;21.630;2023-07-13T04:33:48;15.10;;;9.23;;
77938;SDS011;67136;47.546;21.630;2023-07-13T04:36:51;15.05;;;9.52;;
77938;SDS011;67136;47.546;21.630;2023-07-13T04:39:54;11.50;;;9.35;;
77938;SDS011;67136;47.546;21.630;2023-07-13T04:42:57;14.48;;;9.15;;
77938;SDS011;67136;47.546;21.630;2023-07-13T04:46:03;17.33;;;10.13;;
77938;SDS011;67136;47.546;21.630;2023-07-13T04:49:10;14.27;;;9.03;;
77938;SDS011;67136;47.546;21.630;2023-07-13T04:52:12;15.52;;;9.02;;
77938;SDS011;67136;47.546;21.630;2023-07-13T04:55:16;15.00;;;9.68;;
77938;SDS011;67136;47.546;21.630;2023-07-13T04:58:19;15.43;;;8.75;;
77938;SDS011;67136;47.546;21.630;2023-07-13T05:01:22;14.23;;;9.30;;
77938;SDS011;67136;47.546;21.630;2023-07-13T05:04:24;10.37;;;9.20;;
77938;SDS011;67136;47.546;21.630;2023-07-13T05:07:27;11.90;;;8.80;;
77938;SDS011;67136;47.546;21.630;2023-07-13T05:10:30;14.90;;;9.25;;
77938;SDS011;67136;47.546;21.630;2023-07-13T05:13:32;11.38;;;8.77;;
77938;SDS011;67136;47.546;21.630;2023-07-13T05:16:35;11.45;;;9.15;;
77938;SDS011;67136;47.546;21.630;2023-07-13T05:19:38;13.93;;;9.03;;
77938;SDS011;67136;47.546;21.630;2023-07-13T05:22:41;14.95;;;8.65;;
77938;SDS011;67136;47.546;21.630;2023-07-13T05:25:45;11.23;;;8.13;;
77938;SDS011;67136;47.546;21.630;2023-07-13T05:28:47;14.38;;;8.77;;
77938;SDS011;67136;47.546;21.630;2023-07-13T05:31:50;10.65;;;7.85;;
77938;SDS011;67136;47.546;21.630;2023-07-13T05:34:52;13.40;;;8.30;;
77938;SDS011;67136;47.546;21.630;2023-07-13T05:37:55;11.52;;;7.75;;
77938;SDS011;67136;47.546;21.630;2023-07-13T05:40:58;12.27;;;7.65;;
77938;SDS011;67136;47.546;21.630;2023-07-13T05:44:04;15.55;;;7.57;;
77938;SDS011;67136;47.546;21.630;2023-07-13T05:47:06;16.00;;;7.82;;
77938;SDS011;67136;47.546;21.630;2023-07-13T05:50:10;16.00;;;7.30;;
77938;SDS011;67136;47.546;21.630;2023-07-13T05:53:12;10.00;;;7.30;;
77938;SDS011;67136;47.546;21.630;2023-07-13T05:56:15;8.63;;;6.50;;
77938;SDS011;67136;47.546;21.630;2023-07-13T05:59:18;15.75;;;7.57;;
77938;SDS011;67136;47.546;21.630;2023-07-13T06:02:20;10.55;;;7.25;;
77938;SDS011;67136;47.546;21.630;2023-07-13T06:05:23;11.37;;;7.30;;
77938;SDS011;67136;47.546;21.630;2023-07-13T06:08:26;15.20;;;7.35;;
77938;SDS011;67136;47.546;21.630;2023-07-13T06:11:30;14.55;;;7.25;;
77938;SDS011;67136;47.546;21.630;2023-07-13T06:14:32;12.57;;;6.37;;
77938;SDS011;67136;47.546;21.630;2023-07-13T06:17:35;13.70;;;6.80;;
77938;SDS011;67136;47.546;21.630;2023-07-13T06:20:38;15.10;;;6.70;;
77938;SDS011;67136;47.546;21.630;2023-07-13T06:23:41;13.38;;;6.40;;
77938;SDS011;67136;47.546;21.630;2023-07-13T06:26:44;15.73;;;6.45;;
77938;SDS011;67136;47.546;21.630;2023-07-13T06:29:47;13.18;;;6.30;;
77938;SDS011;67136;47.546;21.630;2023-07-13T06:32:49;13.77;;;6.15;;
77938;SDS011;67136;47.546;21.630;2023-07-13T06:35:52;10.50;;;5.70;;
77938;SDS011;67136;47.546;21.630;2023-07-13T06:38:55;10.77;;;5.80;;
77938;SDS011;67136;47.546;21.630;2023-07-13T06:41:58;14.07;;;5.93;;
77938;SDS011;67136;47.546;21.630;2023-07-13T06:45:00;15.35;;;5.97;;
77938;SDS011;67136;47.546;21.630;2023-07-13T06:48:05;10.32;;;6.07;;
77938;SDS011;67136;47.546;21.630;2023-07-13T06:51:08;13.80;;;5.40;;
77938;SDS011;67136;47.546;21.630;2023-07-13T06:54:11;11.73;;;5.75;;
77938;SDS011;67136;47.546;21.630;2023-07-13T06:57:15;12.23;;;5.90;;
77938;SDS011;67136;47.546;21.630;2023-07-13T07:00:18;30.52;;;8.32;;
77938;SDS011;67136;47.546;21.630;2023-07-13T07:03:29;23.10;;;9.68;;
77938;SDS011;67136;47.546;21.630;2023-07-13T07:06:38;15.83;;;8.40;;
77938;SDS011;67136;47.546;21.630;2023-07-13T07:09:42;22.98;;;11.02;;
77938;SDS011;67136;47.546;21.630;2023-07-13T07:12:48;24.63;;;11.90;;
77938;SDS011;67136;47.546;21.630;2023-07-13T07:16:04;18.15;;;11.77;;
77938;SDS011;67136;47.546;21.630;2023-07-13T07:19:07;24.33;;;14.02;;
77938;SDS011;67136;47.546;21.630;2023-07-13T07:22:09;32.17;;;16.90;;
77938;SDS011;67136;47.546;21.630;2023-07-13T07:25:12;33.70;;;19.27;;
77938;SDS011;67136;47.546;21.630;2023-07-13T07:28:15;30.85;;;17.70;;
77938;SDS011;67136;47.546;21.630;2023-07-13T07:31:24;27.75;;;16.65;;
77938;SDS011;67136;47.546;21.630;2023-07-13T07:34:30;27.50;;;17.12;;
77938;SDS011;67136;47.546;21.630;2023-07-13T07:37:33;37.13;;;21.40;;
77938;SDS011;67136;47.546;21.630;2023-07-13T07:40:39;24.80;;;16.77;;
77938;SDS011;67136;47.546;21.630;2023-07-13T07:43:46;27.17;;;14.98;;
77938;SDS011;67136;47.546;21.630;2023-07-13T07:46:48;21.83;;;13.05;;
77938;SDS011;67136;47.546;21.630;2023-07-13T07:49:51;22.02;;;12.20;;
77938;SDS011;67136;47.546;21.630;2023-07-13T07:52:54;21.57;;;11.73;;
77938;SDS011;67136;47.546;21.630;2023-07-13T07:56:00;21.87;;;10.52;;
77938;SDS011;67136;47.546;21.630;2023-07-13T07:59:22;20.25;;;9.15;;
77938;SDS011;67136;47.546;21.630;2023-07-13T08:02:28;15.65;;;7.62;;
77938;SDS011;67136;47.546;21.630;2023-07-13T08:05:35;19.40;;;8.57;;
77938;SDS011;67136;47.546;21.630;2023-07-13T08:08:44;19.00;;;9.53;;
77938;SDS011;67136;47.546;21.630;2023-07-13T08:11:47;17.30;;;7.87;;
77938;SDS011;67136;47.546;21.630;2023-07-13T08:14:52;19.73;;;9.60;;
77938;SDS011;67136;47.546;21.630;2023-07-13T08:18:00;17.15;;;7.90;;
77938;SDS011;67136;47.546;21.630;2023-07-13T08:21:04;10.85;;;7.28;;
77938;SDS011;67136;47.546;21.630;2023-07-13T08:24:08;17.90;;;8.23;;
77938;SDS011;67136;47.546;21.630;2023-07-13T08:27:11;19.12;;;8.80;;
77938;SDS011;67136;47.546;21.630;2023-07-13T08:30:13;10.20;;;7.18;;
77938;SDS011;67136;47.546;21.630;2023-07-13T08:33:17;11.10;;;6.07;;
77938;SDS011;67136;47.546;21.630;2023-07-13T08:36:20;11.85;;;5.78;;
77938;SDS011;67136;47.546;21.630;2023-07-13T08:39:23;16.17;;;6.17;;
77938;SDS011;67136;47.546;21.630;2023-07-13T08:55:37;15.50;;;8.50;;
77938;SDS011;67136;47.546;21.630;2023-07-13T08:58:41;14.82;;;8.13;;
77938;SDS011;67136;47.546;21.630;2023-07-13T09:04:50;19.90;;;9.63;;
77938;SDS011;67136;47.546;21.630;2023-07-13T09:14:50;14.52;;;8.07;;
77938;SDS011;67136;47.546;21.630;2023-07-13T09:17:55;14.07;;;7.43;;
77938;SDS011;67136;47.546;21.630;2023-07-13T09:21:10;14.25;;;6.85;;
77938;SDS011;67136;47.546;21.630;2023-07-13T09:24:35;10.88;;;6.43;;
77938;SDS011;67136;47.546;21.630;2023-07-13T09:27:41;10.73;;;5.63;;
77938;SDS011;67136;47.546;21.630;2023-07-13T09:30:52;10.20;;;5.30;;
77938;SDS011;67136;47.546;21.630;2023-07-13T09:33:58;5.72;;;4.57;;
77938;SDS011;67136;47.546;21.630;2023-07-13T09:37:00;7.78;;;4.82;;
77938;SDS011;67136;47.546;21.630;2023-07-13T09:40:03;7.43;;;3.80;;
77938;SDS011;67136;47.546;21.630;2023-07-13T09:43:08;5.73;;;3.67;;
77938;SDS011;67136;47.546;21.630;2023-07-13T09:46:21;6.60;;;3.60;;
77938;SDS011;67136;47.546;21.630;2023-07-13T09:49:42;4.32;;;3.12;;
77938;SDS011;67136;47.546;21.630;2023-07-13T09:52:47;4.90;;;3.03;;
77938;SDS011;67136;47.546;21.630;2023-07-13T09:55:52;4.85;;;3.05;;
77938;SDS011;67136;47.546;21.630;2023-07-13T09:58:55;5.90;;;3.20;;
77938;SDS011;67136;47.546;21.630;2023-07-13T10:01:59;5.43;;;2.90;;
77938;SDS011;67136;47.546;21.630;2023-07-13T10:05:03;9.02;;;3.53;;
77938;SDS011;67136;47.546;21.630;2023-07-13T10:08:30;4.62;;;3.20;;
77938;SDS011;67136;47.546;21.630;2023-07-13T10:11:35;5.43;;;2.70;;
77938;SDS011;67136;47.546;21.630;2023-07-13T10:14:39;5.60;;;3.10;;
77938;SDS011;67136;47.546;21.630;2023-07-13T10:17:44;5.90;;;3.22;;
77938;SDS011;67136;47.546;21.630;2023-07-13T10:20:48;5.60;;;3.30;;
77938;SDS011;67136;47.546;21.630;2023-07-13T10:24:06;5.03;;;3.90;;
77938;SDS011;67136;47.546;21.630;2023-07-13T10:27:20;6.87;;;3.25;;
77938;SDS011;67136;47.546;21.630;2023-07-13T10:30:32;6.77;;;3.30;;
77938;SDS011;67136;47.546;21.630;2023-07-13T10:33:37;4.07;;;3.33;;
77938;SDS011;67136;47.546;21.630;2023-07-13T10:36:42;4.80;;;3.40;;
77938;SDS011;67136;47.546;21.630;2023-07-13T10:39:47;5.12;;;3.45;;
77938;SDS011;67136;47.546;21.630;2023-07-13T10:42:51;5.03;;;3.08;;
77938;SDS011;67136;47.546;21.630;2023-07-13T10:45:57;3.87;;;3.27;;
77938;SDS011;67136;47.546;21.630;2023-07-13T10:49:04;5.47;;;3.17;;
77938;SDS011;67136;47.546;21.630;2023-07-13T10:59:01;5.05;;;3.17;;
77938;SDS011;67136;47.546;21.630;2023-07-13T11:02:15;4.57;;;2.70;;
77938;SDS011;67136;47.546;21.630;2023-07-13T11:11:34;3.80;;;2.90;;
77938;SDS011;67136;47.546;21.630;2023-07-13T11:15:02;6.75;;;4.03;;
77938;SDS011;67136;47.546;21.630;2023-07-13T11:18:19;5.83;;;3.43;;
77938;SDS011;67136;47.546;21.630;2023-07-13T11:21:27;7.30;;;3.67;;
77938;SDS011;67136;47.546;21.630;2023-07-13T11:24:53;4.97;;;3.30;;
77938;SDS011;67136;47.546;21.630;2023-07-13T11:31:13;5.47;;;3.30;;
77938;SDS011;67136;47.546;21.630;2023-07-13T11:34:37;8.60;;;2.90;;
77938;SDS011;67136;47.546;21.630;2023-07-13T11:37:41;5.37;;;3.08;;
77938;SDS011;67136;47.546;21.630;2023-07-13T11:40:44;5.62;;;3.10;;
77938;SDS011;67136;47.546;21.630;2023-07-13T11:47:30;4.62;;;3.35;;
77938;SDS011;67136;47.546;21.630;2023-07-13T11:50:33;4.50;;;3.17;;
77938;SDS011;67136;47.546;21.630;2023-07-13T11:53:39;5.00;;;2.95;;
77938;SDS011;67136;47.546;21.630;2023-07-13T11:56:50;5.53;;;2.80;;
77938;SDS011;67136;47.546;21.630;2023-07-13T11:59:54;3.30;;;2.80;;
77938;SDS011;67136;47.546;21.630;2023-07-13T12:02:59;5.65;;;3.03;;
77938;SDS011;67136;47.546;21.630;2023-07-13T12:06:04;6.90;;;3.53;;
77938;SDS011;67136;47.546;21.630;2023-07-13T12:09:12;3.60;;;3.10;;
77938;SDS011;67136;47.546;21.630;2023-07-13T12:12:18;4.43;;;3.40;;
77938;SDS011;67136;47.546;21.630;2023-07-13T12:15:28;4.03;;;3.30;;
77938;SDS011;67136;47.546;21.630;2023-07-13T12:18:39;5.62;;;3.20;;
77938;SDS011;67136;47.546;21.630;2023-07-13T12:21:42;3.87;;;3.13;;
77938;SDS011;67136;47.546;21.630;2023-07-13T12:24:46;3.55;;;2.90;;
77938;SDS011;67136;47.546;21.630;2023-07-13T12:27:50;4.03;;;3.22;;
77938;SDS011;67136;47.546;21.630;2023-07-13T12:30:53;5.32;;;3.60;;
77938;SDS011;67136;47.546;21.630;2023-07-13T12:34:06;5.18;;;3.55;;
77938;SDS011;67136;47.546;21.630;2023-07-13T12:37:20;7.50;;;3.43;;
77938;SDS011;67136;47.546;21.630;2023-07-13T12:40:26;3.65;;;3.03;;
77938;SDS011;67136;47.546;21.630;2023-07-13T12:43:38;4.85;;;3.12;;
77938;SDS011;67136;47.546;21.630;2023-07-13T12:46:50;4.20;;;2.97;;
77938;SDS011;67136;47.546;21.630;2023-07-13T12:49:57;3.87;;;3.40;;
77938;SDS011;67136;47.546;21.630;2023-07-13T12:53:02;4.00;;;2.90;;
77938;SDS011;67136;47.546;21.630;2023-07-13T12:56:08;4.47;;;2.80;;
77938;SDS011;67136;47.546;21.630;2023-07-13T12:59:21;2.92;;;2.47;;
77938;SDS011;67136;47.546;21.630;2023-07-13T13:05:27;4.50;;;2.42;;
77938;SDS011;67136;47.546;21.630;2023-07-13T13:08:35;3.37;;;2.90;;
77938;SDS011;67136;47.546;21.630;2023-07-13T13:11:39;3.55;;;2.75;;
77938;SDS011;67136;47.546;21.630;2023-07-13T13:14:45;3.80;;;3.10;;
77938;SDS011;67136;47.546;21.630;2023-07-13T13:17:47;3.58;;;2.60;;
77938;SDS011;67136;47.546;21.630;2023-07-13T13:20:50;4.37;;;2.67;;
77938;SDS011;67136;47.546;21.630;2023-07-13T13:23:53;2.73;;;2.20;;
77938;SDS011;67136;47.546;21.630;2023-07-13T13:26:56;3.83;;;2.65;;
77938;SDS011;67136;47.546;21.630;2023-07-13T13:29:59;4.62;;;2.70;;
77938;SDS011;67136;47.546;21.630;2023-07-13T13:33:04;7.90;;;2.80;;
77938;SDS011;67136;47.546;21.630;2023-07-13T13:36:08;3.53;;;2.67;;
77938;SDS011;67136;47.546;21.630;2023-07-13T13:39:22;6.10;;;2.40;;
77938;SDS011;67136;47.546;21.630;2023-07-13T13:42:27;3.97;;;2.40;;
77938;SDS011;67136;47.546;21.630;2023-07-13T13:45:31;5.75;;;2.40;;
77938;SDS011;67136;47.546;21.630;2023-07-13T13:48:34;3.08;;;2.10;;
77938;SDS011;67136;47.546;21.630;2023-07-13T13:51:42;4.45;;;2.40;;
77938;SDS011;67136;47.546;21.630;2023-07-13T13:54:44;3.73;;;2.13;;
77938;SDS011;67136;47.546;21.630;2023-07-13T13:57:47;3.17;;;2.40;;
77938;SDS011;67136;47.546;21.630;2023-07-13T14:00:50;4.30;;;2.17;;
77938;SDS011;67136;47.546;21.630;2023-07-13T14:03:54;2.78;;;2.20;;
77938;SDS011;67136;47.546;21.630;2023-07-13T14:06:58;6.00;;;2.37;;
77938;SDS011;67136;47.546;21.630;2023-07-13T14:10:00;10.20;;;2.10;;
77938;SDS011;67136;47.546;21.630;2023-07-13T14:13:03;4.97;;;2.30;;
77938;SDS011;67136;47.546;21.630;2023-07-13T14:16:12;3.62;;;2.08;;
77938;SDS011;67136;47.546;21.630;2023-07-13T14:19:21;5.87;;;2.40;;
77938;SDS011;67136;47.546;21.630;2023-07-13T14:22:25;3.53;;;2.10;;
77938;SDS011;67136;47.546;21.630;2023-07-13T14:25:28;2.67;;;1.80;;
77938;SDS011;67136;47.546;21.630;2023-07-13T14:28:31;7.87;;;1.83;;
77938;SDS011;67136;47.546;21.630;2023-07-13T14:31:34;2.03;;;1.65;;
77938;SDS011;67136;47.546;21.630;2023-07-13T14:34:36;4.03;;;2.05;;
77938;SDS011;67136;47.546;21.630;2023-07-13T14:37:44;2.58;;;2.03;;
77938;SDS011;67136;47.546;21.630;2023-07-13T14:40:49;4.60;;;2.00;;
77938;SDS011;67136;47.546;21.630;2023-07-13T14:43:51;3.03;;;1.77;;
77938;SDS011;67136;47.546;21.630;2023-07-13T14:46:54;3.62;;;2.15;;
77938;SDS011;67136;47.546;21.630;2023-07-13T14:49:58;3.58;;;2.10;;
77938;SDS011;67136;47.546;21.630;2023-07-13T14:53:01;3.42;;;2.20;;
77938;SDS011;67136;47.546;21.630;2023-07-13T14:56:09;3.43;;;2.10;;
77938;SDS011;67136;47.546;21.630;2023-07-13T14:59:13;6.05;;;2.28;;
77938;SDS011;67136;47.546;21.630;2023-07-13T15:02:17;2.30;;;2.08;;
77938;SDS011;67136;47.546;21.630;2023-07-13T15:05:24;3.10;;;1.98;;
77938;SDS011;67136;47.546;21.630;2023-07-13T15:08:29;2.62;;;2.08;;
77938;SDS011;67136;47.546;21.630;2023-07-13T15:11:32;4.10;;;2.10;;
77938;SDS011;67136;47.546;21.630;2023-07-13T15:14:34;3.15;;;1.90;;
77938;SDS011;67136;47.546;21.630;2023-07-13T15:17:37;2.75;;;1.92;;
77938;SDS011;67136;47.546;21.630;2023-07-13T15:20:42;2.67;;;1.83;;
77938;SDS011;67136;47.546;21.630;2023-07-13T15:23:50;5.70;;;1.73;;
77938;SDS011;67136;47.546;21.630;2023-07-13T15:26:53;3.07;;;1.70;;
77938;SDS011;67136;47.546;21.630;2023-07-13T15:29:56;2.30;;;1.60;;
77938;SDS011;67136;47.546;21.630;2023-07-13T15:33:00;2.78;;;1.90;;
77938;SDS011;67136;47.546;21.630;2023-07-13T15:36:13;4.85;;;1.52;;
77938;SDS011;67136;47.546;21.630;2023-07-13T15:39:16;4.80;;;1.80;;
77938;SDS011;67136;47.546;21.630;2023-07-13T15:42:20;4.53;;;2.00;;
77938;SDS011;67136;47.546;21.630;2023-07-13T15:45:23;2.75;;;1.42;;
77938;SDS011;67136;47.546;21.630;2023-07-13T15:48:30;6.95;;;1.80;;
77938;SDS011;67136;47.546;21.630;2023-07-13T15:51:33;5.93;;;1.83;;
77938;SDS011;67136;47.546;21.630;2023-07-13T15:54:37;2.60;;;1.70;;
77938;SDS011;67136;47.546;21.630;2023-07-13T15:57:44;3.43;;;2.00;;
77938;SDS011;67136;47.546;21.630;2023-07-13T16:00:50;3.42;;;2.25;;
77938;SDS011;67136;47.546;21.630;2023-07-13T16:03:54;2.83;;;1.75;;
77938;SDS011;67136;47.546;21.630;2023-07-13T16:06:56;3.62;;;1.87;;
77938;SDS011;67136;47.546;21.630;2023-07-13T16:09:59;4.07;;;1.80;;
77938;SDS011;67136;47.546;21.630;2023-07-13T16:13:02;3.77;;;1.77;;
77938;SDS011;67136;47.546;21.630;2023-07-13T16:16:11;5.40;;;1.80;;
77938;SDS011;67136;47.546;21.630;2023-07-13T16:19:16;3.83;;;1.73;;
77938;SDS011;67136;47.546;21.630;2023-07-13T16:22:20;4.40;;;1.62;;
77938;SDS011;67136;47.546;21.630;2023-07-13T16:25:23;2.58;;;1.60;;
77938;SDS011;67136;47.546;21.630;2023-07-13T16:28:27;2.23;;;1.70;;
77938;SDS011;67136;47.546;21.630;2023-07-13T16:31:30;2.85;;;1.70;;
77938;SDS011;67136;47.546;21.630;2023-07-13T16:34:37;2.67;;;1.92;;
77938;SDS011;67136;47.546;21.630;2023-07-13T16:37:42;3.15;;;2.20;;
77938;SDS011;67136;47.546;21.630;2023-07-13T16:41:03;2.58;;;1.83;;
77938;SDS011;67136;47.546;21.630;2023-07-13T16:44:14;4.43;;;1.77;;
77938;SDS011;67136;47.546;21.630;2023-07-13T16:47:23;1.83;;;1.58;;
77938;SDS011;67136;47.546;21.630;2023-07-13T16:50:29;3.00;;;2.10;;
77938;SDS011;67136;47.546;21.630;2023-07-13T16:53:33;3.28;;;2.08;;
77938;SDS011;67136;47.546;21.630;2023-07-13T16:56:36;3.25;;;1.98;;
77938;SDS011;67136;47.546;21.630;2023-07-13T16:59:39;2.77;;;1.83;;
77938;SDS011;67136;47.546;21.630;2023-07-13T17:02:42;3.00;;;1.58;;
77938;SDS011;67136;47.546;21.630;2023-07-13T17:05:45;2.30;;;1.83;;
77938;SDS011;67136;47.546;21.630;2023-07-13T17:08:52;2.72;;;1.98;;
77938;SDS011;67136;47.546;21.630;2023-07-13T17:11:56;3.87;;;2.05;;
77938;SDS011;67136;47.546;21.630;2023-07-13T17:15:00;4.53;;;2.07;;
77938;SDS011;67136;47.546;21.630;2023-07-13T17:18:04;7.93;;;2.00;;
77938;SDS011;67136;47.546;21.630;2023-07-13T17:21:14;4.68;;;1.92;;
77938;SDS011;67136;47.546;21.630;2023-07-13T17:24:23;2.22;;;1.85;;
77938;SDS011;67136;47.546;21.630;2023-07-13T17:27:28;3.70;;;2.00;;
77938;SDS011;67136;47.546;21.630;2023-07-13T17:30:30;5.67;;;1.90;;
77938;SDS011;67136;47.546;21.630;2023-07-13T17:36:43;8.73;;;2.05;;
77938;SDS011;67136;47.546;21.630;2023-07-13T17:39:46;3.50;;;1.92;;
77938;SDS011;67136;47.546;21.630;2023-07-13T17:42:50;4.90;;;1.98;;
77938;SDS011;67136;47.546;21.630;2023-07-13T17:45:57;2.60;;;1.80;;
77938;SDS011;67136;47.546;21.630;2023-07-13T17:49:01;5.07;;;2.30;;
77938;SDS011;67136;47.546;21.630;2023-07-13T17:52:07;4.95;;;2.30;;
77938;SDS011;67136;47.546;21.630;2023-07-13T17:55:14;3.65;;;2.20;;
77938;SDS011;67136;47.546;21.630;2023-07-13T17:58:18;3.25;;;1.95;;
77938;SDS011;67136;47.546;21.630;2023-07-13T18:01:22;6.80;;;2.03;;
77938;SDS011;67136;47.546;21.630;2023-07-13T18:04:26;3.70;;;2.00;;
77938;SDS011;67136;47.546;21.630;2023-07-13T18:07:29;4.60;;;2.30;;
77938;SDS011;67136;47.546;21.630;2023-07-13T18:10:33;4.00;;;2.25;;
77938;SDS011;67136;47.546;21.630;2023-07-13T18:13:35;3.65;;;2.58;;
77938;SDS011;67136;47.546;21.630;2023-07-13T18:16:44;3.63;;;1.90;;
77938;SDS011;67136;47.546;21.630;2023-07-13T18:19:55;2.40;;;1.90;;
77938;SDS011;67136;47.546;21.630;2023-07-13T18:22:59;2.92;;;2.00;;
77938;SDS011;67136;47.546;21.630;2023-07-13T18:26:01;3.37;;;2.08;;
77938;SDS011;67136;47.546;21.630;2023-07-13T18:29:04;4.68;;;2.25;;
77938;SDS011;67136;47.546;21.630;2023-07-13T18:32:09;4.20;;;2.37;;
77938;SDS011;67136;47.546;21.630;2023-07-13T18:35:25;3.45;;;2.12;;
77938;SDS011;67136;47.546;21.630;2023-07-13T18:38:32;2.60;;;2.30;;
77938;SDS011;67136;47.546;21.630;2023-07-13T18:41:35;4.22;;;2.58;;
77938;SDS011;67136;47.546;21.630;2023-07-13T18:44:40;4.62;;;2.40;;
77938;SDS011;67136;47.546;21.630;2023-07-13T18:47:45;5.17;;;2.47;;
77938;SDS011;67136;47.546;21.630;2023-07-13T18:50:49;4.80;;;3.00;;
77938;SDS011;67136;47.546;21.630;2023-07-13T18:53:53;4.28;;;2.22;;